sensor_id;sensor_type;location;lat;lon;timestamp;P1;durP1;ratioP1;P2;durP2;ratioP2
7969;SDS011;4030;52.362;9.206;2023-05-07T00:01:50;11.98;;;10.88;;
7969;SDS011;4030;52.362;9.206;2023-05-07T00:04:16;12.48;;;11.27;;
7969;SDS011;4030;52.362;9.206;2023-05-07T00:06:42;12.73;;;11.57;;
7969;SDS011;4030;52.362;9.206;2023-05-07T00:09:08;13.15;;;11.90;;
7969;SDS011;4030;52.362;9.206;2023-05-07T00:11:34;13.35;;;12.18;;
7969;SDS011;4030;52.362;9.206;2023-05-07T00:14:00;13.25;;;11.95;;
7969;SDS011;4030;52.362;9.206;2023-05-07T00:16:26;14.40;;;13.02;;
7969;SDS011;4030;52.362;9.206;2023-05-07T00:18:52;15.23;;;13.75;;
7969;SDS011;4030;52.362;9.206;2023-05-07T00:21:18;15.70;;;14.23;;
7969;SDS011;4030;52.362;9.206;2023-05-07T00:23:44;16.52;;;14.90;;
7969;SDS011;4030;52.362;9.206;2023-05-07T00:26:10;17.00;;;15.40;;
7969;SDS011;4030;52.362;9.206;2023-05-07T00:28:36;16.73;;;15.13;;
7969;SDS011;4030;52.362;9.206;2023-05-07T00:31:02;16.63;;;15.13;;
7969;SDS011;4030;52.362;9.206;2023-05-07T00:33:27;17.52;;;15.82;;
7969;SDS011;4030;52.362;9.206;2023-05-07T00:35:53;17.00;;;15.40;;
7969;SDS011;4030;52.362;9.206;2023-05-07T00:38:19;17.77;;;16.08;;
7969;SDS011;4030;52.362;9.206;2023-05-07T00:40:45;18.10;;;16.35;;
7969;SDS011;4030;52.362;9.206;2023-05-07T00:43:11;18.90;;;17.10;;
7969;SDS011;4030;52.362;9.206;2023-05-07T00:45:37;17.95;;;16.15;;
7969;SDS011;4030;52.362;9.206;2023-05-07T00:48:04;18.40;;;16.52;;
7969;SDS011;4030;52.362;9.206;2023-05-07T00:50:30;19.38;;;16.88;;
7969;SDS011;4030;52.362;9.206;2023-05-07T00:52:56;19.23;;;17.33;;
7969;SDS011;4030;52.362;9.206;2023-05-07T00:55:23;18.98;;;17.08;;
7969;SDS011;4030;52.362;9.206;2023-05-07T00:57:50;19.10;;;17.20;;
7969;SDS011;4030;52.362;9.206;2023-05-07T01:00:16;19.08;;;17.17;;
7969;SDS011;4030;52.362;9.206;2023-05-07T01:02:43;20.05;;;18.15;;
7969;SDS011;4030;52.362;9.206;2023-05-07T01:05:09;18.70;;;16.90;;
7969;SDS011;4030;52.362;9.206;2023-05-07T01:07:38;18.92;;;16.98;;
7969;SDS011;4030;52.362;9.206;2023-05-07T01:10:06;20.40;;;18.30;;
7969;SDS011;4030;52.362;9.206;2023-05-07T01:12:34;18.27;;;16.38;;
7969;SDS011;4030;52.362;9.206;2023-05-07T01:15:00;18.75;;;16.80;;
7969;SDS011;4030;52.362;9.206;2023-05-07T01:17:27;18.30;;;16.42;;
7969;SDS011;4030;52.362;9.206;2023-05-07T01:19:53;18.05;;;16.20;;
7969;SDS011;4030;52.362;9.206;2023-05-07T01:22:29;18.15;;;16.25;;
7969;SDS011;4030;52.362;9.206;2023-05-07T01:24:59;18.10;;;16.25;;
7969;SDS011;4030;52.362;9.206;2023-05-07T01:27:26;17.45;;;15.68;;
7969;SDS011;4030;52.362;9.206;2023-05-07T01:29:52;17.77;;;16.08;;
7969;SDS011;4030;52.362;9.206;2023-05-07T01:32:19;18.10;;;16.30;;
7969;SDS011;4030;52.362;9.206;2023-05-07T01:34:54;17.80;;;16.00;;
7969;SDS011;4030;52.362;9.206;2023-05-07T01:37:22;17.98;;;16.15;;
7969;SDS011;4030;52.362;9.206;2023-05-07T01:39:49;17.75;;;15.95;;
7969;SDS011;4030;52.362;9.206;2023-05-07T01:42:15;17.85;;;16.05;;
7969;SDS011;4030;52.362;9.206;2023-05-07T01:44:41;17.50;;;15.82;;
7969;SDS011;4030;52.362;9.206;2023-05-07T01:47:07;17.75;;;15.93;;
7969;SDS011;4030;52.362;9.206;2023-05-07T01:49:33;17.70;;;15.88;;
7969;SDS011;4030;52.362;9.206;2023-05-07T01:51:59;18.08;;;16.17;;
7969;SDS011;4030;52.362;9.206;2023-05-07T01:54:26;17.55;;;15.75;;
7969;SDS011;4030;52.362;9.206;2023-05-07T01:56:58;17.42;;;15.73;;
7969;SDS011;4030;52.362;9.206;2023-05-07T01:59:25;17.73;;;15.93;;
7969;SDS011;4030;52.362;9.206;2023-05-07T02:01:51;17.58;;;15.77;;
7969;SDS011;4030;52.362;9.206;2023-05-07T02:04:16;16.98;;;15.23;;
7969;SDS011;4030;52.362;9.206;2023-05-07T02:06:42;16.50;;;14.75;;
7969;SDS011;4030;52.362;9.206;2023-05-07T02:09:08;17.17;;;15.40;;
7969;SDS011;4030;52.362;9.206;2023-05-07T02:11:34;17.90;;;16.00;;
7969;SDS011;4030;52.362;9.206;2023-05-07T02:14:00;18.70;;;16.33;;
7969;SDS011;4030;52.362;9.206;2023-05-07T02:16:25;17.20;;;15.40;;
7969;SDS011;4030;52.362;9.206;2023-05-07T02:18:51;16.48;;;14.73;;
7969;SDS011;4030;52.362;9.206;2023-05-07T02:21:17;16.73;;;14.32;;
7969;SDS011;4030;52.362;9.206;2023-05-07T02:23:43;17.83;;;15.75;;
7969;SDS011;4030;52.362;9.206;2023-05-07T02:26:10;17.13;;;15.27;;
7969;SDS011;4030;52.362;9.206;2023-05-07T02:28:36;18.58;;;15.68;;
7969;SDS011;4030;52.362;9.206;2023-05-07T02:31:02;18.98;;;16.73;;
7969;SDS011;4030;52.362;9.206;2023-05-07T02:33:28;18.50;;;16.42;;
7969;SDS011;4030;52.362;9.206;2023-05-07T02:35:54;18.10;;;16.05;;
7969;SDS011;4030;52.362;9.206;2023-05-07T02:38:20;17.50;;;15.63;;
7969;SDS011;4030;52.362;9.206;2023-05-07T02:40:46;18.48;;;16.23;;
7969;SDS011;4030;52.362;9.206;2023-05-07T02:43:12;18.02;;;15.52;;
7969;SDS011;4030;52.362;9.206;2023-05-07T02:45:38;17.92;;;16.02;;
7969;SDS011;4030;52.362;9.206;2023-05-07T02:48:04;17.17;;;15.05;;
7969;SDS011;4030;52.362;9.206;2023-05-07T02:50:31;17.13;;;15.23;;
7969;SDS011;4030;52.362;9.206;2023-05-07T02:52:57;16.45;;;14.65;;
7969;SDS011;4030;52.362;9.206;2023-05-07T02:55:23;15.60;;;13.90;;
7969;SDS011;4030;52.362;9.206;2023-05-07T02:57:49;18.40;;;15.60;;
7969;SDS011;4030;52.362;9.206;2023-05-07T03:00:15;16.65;;;14.70;;
7969;SDS011;4030;52.362;9.206;2023-05-07T03:02:44;17.00;;;14.18;;
7969;SDS011;4030;52.362;9.206;2023-05-07T03:05:10;16.15;;;14.38;;
7969;SDS011;4030;52.362;9.206;2023-05-07T03:07:37;15.73;;;13.95;;
7969;SDS011;4030;52.362;9.206;2023-05-07T03:10:03;16.10;;;14.50;;
7969;SDS011;4030;52.362;9.206;2023-05-07T03:12:30;15.35;;;13.75;;
7969;SDS011;4030;52.362;9.206;2023-05-07T03:14:56;14.77;;;13.13;;
7969;SDS011;4030;52.362;9.206;2023-05-07T03:17:22;14.77;;;12.73;;
7969;SDS011;4030;52.362;9.206;2023-05-07T03:19:47;15.40;;;12.98;;
7969;SDS011;4030;52.362;9.206;2023-05-07T03:22:13;14.00;;;12.50;;
7969;SDS011;4030;52.362;9.206;2023-05-07T03:24:39;14.43;;;12.90;;
7969;SDS011;4030;52.362;9.206;2023-05-07T03:27:05;13.60;;;12.18;;
7969;SDS011;4030;52.362;9.206;2023-05-07T03:29:31;13.68;;;11.85;;
7969;SDS011;4030;52.362;9.206;2023-05-07T03:31:58;13.07;;;11.65;;
7969;SDS011;4030;52.362;9.206;2023-05-07T03:34:24;13.35;;;11.95;;
7969;SDS011;4030;52.362;9.206;2023-05-07T03:36:50;13.90;;;11.25;;
7969;SDS011;4030;52.362;9.206;2023-05-07T03:39:16;12.80;;;11.50;;
7969;SDS011;4030;52.362;9.206;2023-05-07T03:41:42;11.85;;;10.60;;
7969;SDS011;4030;52.362;9.206;2023-05-07T03:44:08;12.00;;;10.80;;
7969;SDS011;4030;52.362;9.206;2023-05-07T03:46:34;11.15;;;10.05;;
7969;SDS011;4030;52.362;9.206;2023-05-07T03:49:00;11.55;;;10.32;;
7969;SDS011;4030;52.362;9.206;2023-05-07T03:51:26;10.98;;;9.85;;
7969;SDS011;4030;52.362;9.206;2023-05-07T03:53:52;10.50;;;9.50;;
7969;SDS011;4030;52.362;9.206;2023-05-07T03:56:18;11.25;;;9.75;;
7969;SDS011;4030;52.362;9.206;2023-05-07T03:58:44;10.02;;;9.02;;
7969;SDS011;4030;52.362;9.206;2023-05-07T04:01:10;11.05;;;9.85;;
7969;SDS011;4030;52.362;9.206;2023-05-07T04:03:37;10.05;;;9.07;;
7969;SDS011;4030;52.362;9.206;2023-05-07T04:06:02;10.73;;;9.70;;
7969;SDS011;4030;52.362;9.206;2023-05-07T04:08:28;10.88;;;9.38;;
7969;SDS011;4030;52.362;9.206;2023-05-07T04:10:57;10.40;;;9.40;;
7969;SDS011;4030;52.362;9.206;2023-05-07T04:13:24;9.23;;;8.32;;
7969;SDS011;4030;52.362;9.206;2023-05-07T04:15:50;10.07;;;9.00;;
7969;SDS011;4030;52.362;9.206;2023-05-07T04:18:17;11.32;;;9.90;;
7969;SDS011;4030;52.362;9.206;2023-05-07T04:20:43;10.18;;;9.27;;
7969;SDS011;4030;52.362;9.206;2023-05-07T04:23:09;10.80;;;9.68;;
7969;SDS011;4030;52.362;9.206;2023-05-07T04:25:35;10.90;;;9.80;;
7969;SDS011;4030;52.362;9.206;2023-05-07T04:28:01;11.00;;;9.90;;
7969;SDS011;4030;52.362;9.206;2023-05-07T04:30:27;11.52;;;10.43;;
7969;SDS011;4030;52.362;9.206;2023-05-07T04:32:53;11.55;;;10.45;;
7969;SDS011;4030;52.362;9.206;2023-05-07T04:35:19;11.75;;;10.65;;
7969;SDS011;4030;52.362;9.206;2023-05-07T04:37:45;12.25;;;11.10;;
7969;SDS011;4030;52.362;9.206;2023-05-07T04:40:11;11.88;;;10.77;;
7969;SDS011;4030;52.362;9.206;2023-05-07T04:42:37;12.15;;;10.90;;
7969;SDS011;4030;52.362;9.206;2023-05-07T04:45:04;12.80;;;11.60;;
7969;SDS011;4030;52.362;9.206;2023-05-07T04:47:30;12.90;;;11.60;;
7969;SDS011;4030;52.362;9.206;2023-05-07T04:49:57;13.30;;;12.00;;
7969;SDS011;4030;52.362;9.206;2023-05-07T04:52:23;12.85;;;11.65;;
7969;SDS011;4030;52.362;9.206;2023-05-07T04:54:49;12.57;;;11.27;;
7969;SDS011;4030;52.362;9.206;2023-05-07T04:57:14;12.38;;;11.18;;
7969;SDS011;4030;52.362;9.206;2023-05-07T04:59:42;12.57;;;11.38;;
7969;SDS011;4030;52.362;9.206;2023-05-07T05:02:09;12.57;;;11.30;;
7969;SDS011;4030;52.362;9.206;2023-05-07T05:04:35;12.65;;;11.38;;
7969;SDS011;4030;52.362;9.206;2023-05-07T05:07:02;12.13;;;10.88;;
7969;SDS011;4030;52.362;9.206;2023-05-07T05:09:29;12.63;;;11.43;;
7969;SDS011;4030;52.362;9.206;2023-05-07T05:11:55;12.88;;;11.68;;
7969;SDS011;4030;52.362;9.206;2023-05-07T05:14:21;11.88;;;10.77;;
7969;SDS011;4030;52.362;9.206;2023-05-07T05:16:46;12.32;;;11.13;;
7969;SDS011;4030;52.362;9.206;2023-05-07T05:19:12;11.65;;;10.55;;
7969;SDS011;4030;52.362;9.206;2023-05-07T05:21:38;12.02;;;10.88;;
7969;SDS011;4030;52.362;9.206;2023-05-07T05:24:04;11.98;;;10.77;;
7969;SDS011;4030;52.362;9.206;2023-05-07T05:26:31;11.65;;;10.50;;
7969;SDS011;4030;52.362;9.206;2023-05-07T05:28:57;11.35;;;10.25;;
7969;SDS011;4030;52.362;9.206;2023-05-07T05:31:23;11.40;;;10.30;;
7969;SDS011;4030;52.362;9.206;2023-05-07T05:33:49;11.38;;;10.25;;
7969;SDS011;4030;52.362;9.206;2023-05-07T05:36:15;10.70;;;9.70;;
7969;SDS011;4030;52.362;9.206;2023-05-07T05:38:41;11.48;;;10.00;;
7969;SDS011;4030;52.362;9.206;2023-05-07T05:41:07;11.00;;;9.95;;
7969;SDS011;4030;52.362;9.206;2023-05-07T05:43:33;11.15;;;10.15;;
7969;SDS011;4030;52.362;9.206;2023-05-07T05:45:59;11.23;;;10.10;;
7969;SDS011;4030;52.362;9.206;2023-05-07T05:48:25;11.48;;;10.23;;
7969;SDS011;4030;52.362;9.206;2023-05-07T05:50:51;11.75;;;10.18;;
7969;SDS011;4030;52.362;9.206;2023-05-07T05:53:17;10.43;;;9.43;;
7969;SDS011;4030;52.362;9.206;2023-05-07T05:55:43;11.60;;;10.50;;
7969;SDS011;4030;52.362;9.206;2023-05-07T05:58:10;11.55;;;10.43;;
7969;SDS011;4030;52.362;9.206;2023-05-07T06:00:36;11.75;;;10.52;;
7969;SDS011;4030;52.362;9.206;2023-05-07T06:03:02;12.07;;;10.88;;
7969;SDS011;4030;52.362;9.206;2023-05-07T06:05:27;12.30;;;11.10;;
7969;SDS011;4030;52.362;9.206;2023-05-07T06:07:53;11.18;;;10.15;;
7969;SDS011;4030;52.362;9.206;2023-05-07T06:10:20;11.07;;;9.98;;
7969;SDS011;4030;52.362;9.206;2023-05-07T06:12:46;10.93;;;9.82;;
7969;SDS011;4030;52.362;9.206;2023-05-07T06:15:12;11.63;;;10.52;;
7969;SDS011;4030;52.362;9.206;2023-05-07T06:17:38;11.20;;;10.00;;
7969;SDS011;4030;52.362;9.206;2023-05-07T06:20:04;10.85;;;9.75;;
7969;SDS011;4030;52.362;9.206;2023-05-07T06:22:31;11.05;;;9.95;;
7969;SDS011;4030;52.362;9.206;2023-05-07T06:24:56;10.50;;;9.27;;
7969;SDS011;4030;52.362;9.206;2023-05-07T06:27:22;9.65;;;8.75;;
7969;SDS011;4030;52.362;9.206;2023-05-07T06:29:48;9.93;;;8.93;;
7969;SDS011;4030;52.362;9.206;2023-05-07T06:32:14;9.85;;;8.85;;
7969;SDS011;4030;52.362;9.206;2023-05-07T06:34:42;9.07;;;8.18;;
7969;SDS011;4030;52.362;9.206;2023-05-07T06:37:07;9.07;;;8.18;;
7969;SDS011;4030;52.362;9.206;2023-05-07T06:39:33;9.35;;;8.45;;
7969;SDS011;4030;52.362;9.206;2023-05-07T06:41:59;9.32;;;8.32;;
7969;SDS011;4030;52.362;9.206;2023-05-07T06:44:26;9.65;;;8.68;;
7969;SDS011;4030;52.362;9.206;2023-05-07T06:46:52;9.27;;;8.43;;
7969;SDS011;4030;52.362;9.206;2023-05-07T06:49:18;8.85;;;8.02;;
7969;SDS011;4030;52.362;9.206;2023-05-07T06:51:44;8.13;;;7.32;;
7969;SDS011;4030;52.362;9.206;2023-05-07T06:54:10;8.32;;;7.63;;
7969;SDS011;4030;52.362;9.206;2023-05-07T06:56:35;8.68;;;7.88;;
7969;SDS011;4030;52.362;9.206;2023-05-07T06:59:01;8.05;;;7.35;;
7969;SDS011;4030;52.362;9.206;2023-05-07T07:01:28;8.05;;;7.35;;
7969;SDS011;4030;52.362;9.206;2023-05-07T07:03:53;7.85;;;7.15;;
7969;SDS011;4030;52.362;9.206;2023-05-07T07:06:20;7.55;;;6.88;;
7969;SDS011;4030;52.362;9.206;2023-05-07T07:08:45;7.00;;;6.30;;
7969;SDS011;4030;52.362;9.206;2023-05-07T07:11:11;7.82;;;7.13;;
7969;SDS011;4030;52.362;9.206;2023-05-07T07:13:37;7.20;;;6.50;;
7969;SDS011;4030;52.362;9.206;2023-05-07T07:16:05;7.25;;;6.63;;
7969;SDS011;4030;52.362;9.206;2023-05-07T07:18:31;6.93;;;6.22;;
7969;SDS011;4030;52.362;9.206;2023-05-07T07:20:57;7.20;;;6.50;;
7969;SDS011;4030;52.362;9.206;2023-05-07T07:23:23;6.93;;;6.22;;
7969;SDS011;4030;52.362;9.206;2023-05-07T07:25:49;6.30;;;5.70;;
7969;SDS011;4030;52.362;9.206;2023-05-07T07:28:15;5.90;;;5.40;;
7969;SDS011;4030;52.362;9.206;2023-05-07T07:30:42;5.72;;;5.22;;
7969;SDS011;4030;52.362;9.206;2023-05-07T07:33:07;5.70;;;5.10;;
7969;SDS011;4030;52.362;9.206;2023-05-07T07:35:33;5.65;;;5.00;;
7969;SDS011;4030;52.362;9.206;2023-05-07T07:37:59;5.30;;;4.80;;
7969;SDS011;4030;52.362;9.206;2023-05-07T07:40:25;5.18;;;4.68;;
7969;SDS011;4030;52.362;9.206;2023-05-07T07:42:51;5.50;;;5.00;;
7969;SDS011;4030;52.362;9.206;2023-05-07T07:45:18;5.38;;;4.88;;
7969;SDS011;4030;52.362;9.206;2023-05-07T07:47:44;5.03;;;4.63;;
7969;SDS011;4030;52.362;9.206;2023-05-07T07:50:09;5.03;;;4.53;;
7969;SDS011;4030;52.362;9.206;2023-05-07T07:52:35;5.43;;;4.40;;
7969;SDS011;4030;52.362;9.206;2023-05-07T07:55:01;4.85;;;4.35;;
7969;SDS011;4030;52.362;9.206;2023-05-07T07:57:27;4.68;;;4.28;;
7969;SDS011;4030;52.362;9.206;2023-05-07T07:59:53;4.70;;;4.30;;
7969;SDS011;4030;52.362;9.206;2023-05-07T08:02:19;4.93;;;4.53;;
7969;SDS011;4030;52.362;9.206;2023-05-07T08:04:45;4.72;;;4.32;;
7969;SDS011;4030;52.362;9.206;2023-05-07T08:07:11;5.07;;;4.57;;
7969;SDS011;4030;52.362;9.206;2023-05-07T08:09:39;4.40;;;4.00;;
7969;SDS011;4030;52.362;9.206;2023-05-07T08:12:06;4.60;;;4.20;;
7969;SDS011;4030;52.362;9.206;2023-05-07T08:14:32;5.15;;;4.13;;
7969;SDS011;4030;52.362;9.206;2023-05-07T08:16:59;4.53;;;3.72;;
7969;SDS011;4030;52.362;9.206;2023-05-07T08:19:25;3.83;;;3.53;;
7969;SDS011;4030;52.362;9.206;2023-05-07T08:21:50;3.83;;;3.53;;
7969;SDS011;4030;52.362;9.206;2023-05-07T08:24:17;4.57;;;3.47;;
7969;SDS011;4030;52.362;9.206;2023-05-07T08:26:43;3.80;;;3.50;;
7969;SDS011;4030;52.362;9.206;2023-05-07T08:29:10;4.55;;;3.90;;
7969;SDS011;4030;52.362;9.206;2023-05-07T08:31:36;5.47;;;3.38;;
7969;SDS011;4030;52.362;9.206;2023-05-07T08:34:03;3.75;;;3.45;;
7969;SDS011;4030;52.362;9.206;2023-05-07T08:36:30;3.70;;;3.40;;
7969;SDS011;4030;52.362;9.206;2023-05-07T08:38:55;3.72;;;3.40;;
7969;SDS011;4030;52.362;9.206;2023-05-07T08:41:21;3.80;;;3.50;;
7969;SDS011;4030;52.362;9.206;2023-05-07T08:43:48;4.35;;;3.75;;
7969;SDS011;4030;52.362;9.206;2023-05-07T08:46:21;3.50;;;3.20;;
7969;SDS011;4030;52.362;9.206;2023-05-07T08:48:48;3.15;;;2.88;;
7969;SDS011;4030;52.362;9.206;2023-05-07T08:51:16;4.28;;;3.42;;
7969;SDS011;4030;52.362;9.206;2023-05-07T08:53:46;3.85;;;3.55;;
7969;SDS011;4030;52.362;9.206;2023-05-07T08:56:14;4.10;;;3.70;;
7969;SDS011;4030;52.362;9.206;2023-05-07T08:58:42;4.40;;;4.00;;
7969;SDS011;4030;52.362;9.206;2023-05-07T09:01:09;4.43;;;4.03;;
7969;SDS011;4030;52.362;9.206;2023-05-07T09:03:39;10.93;;;5.50;;
7969;SDS011;4030;52.362;9.206;2023-05-07T09:06:05;8.30;;;5.00;;
7969;SDS011;4030;52.362;9.206;2023-05-07T09:08:34;6.25;;;4.82;;
7969;SDS011;4030;52.362;9.206;2023-05-07T09:11:01;5.95;;;4.85;;
7969;SDS011;4030;52.362;9.206;2023-05-07T09:13:27;5.13;;;4.55;;
7969;SDS011;4030;52.362;9.206;2023-05-07T09:15:53;5.07;;;4.57;;
7969;SDS011;4030;52.362;9.206;2023-05-07T09:18:19;4.55;;;4.15;;
7969;SDS011;4030;52.362;9.206;2023-05-07T09:20:45;5.05;;;4.22;;
7969;SDS011;4030;52.362;9.206;2023-05-07T09:23:11;5.07;;;4.60;;
7969;SDS011;4030;52.362;9.206;2023-05-07T09:25:37;5.22;;;4.70;;
7969;SDS011;4030;52.362;9.206;2023-05-07T09:28:04;5.03;;;4.43;;
7969;SDS011;4030;52.362;9.206;2023-05-07T09:30:32;4.68;;;4.28;;
7969;SDS011;4030;52.362;9.206;2023-05-07T09:32:59;5.25;;;4.80;;
7969;SDS011;4030;52.362;9.206;2023-05-07T09:35:28;4.80;;;4.40;;
7969;SDS011;4030;52.362;9.206;2023-05-07T09:37:58;5.40;;;4.95;;
7969;SDS011;4030;52.362;9.206;2023-05-07T09:40:26;11.05;;;5.72;;
7969;SDS011;4030;52.362;9.206;2023-05-07T09:42:54;14.70;;;6.32;;
7969;SDS011;4030;52.362;9.206;2023-05-07T09:47:55;8.82;;;5.40;;
7969;SDS011;4030;52.362;9.206;2023-05-07T09:50:27;8.27;;;5.20;;
7969;SDS011;4030;52.362;9.206;2023-05-07T09:52:55;7.72;;;5.53;;
7969;SDS011;4030;52.362;9.206;2023-05-07T09:55:22;5.85;;;5.30;;
7969;SDS011;4030;52.362;9.206;2023-05-07T09:57:51;6.57;;;5.90;;
7969;SDS011;4030;52.362;9.206;2023-05-07T10:00:18;5.75;;;5.07;;
7969;SDS011;4030;52.362;9.206;2023-05-07T10:02:49;5.80;;;5.20;;
7969;SDS011;4030;52.362;9.206;2023-05-07T10:05:21;5.90;;;5.30;;
7969;SDS011;4030;52.362;9.206;2023-05-07T10:07:47;6.70;;;5.95;;
7969;SDS011;4030;52.362;9.206;2023-05-07T10:10:14;7.65;;;5.40;;
7969;SDS011;4030;52.362;9.206;2023-05-07T10:12:43;5.55;;;5.05;;
7969;SDS011;4030;52.362;9.206;2023-05-07T10:15:09;7.18;;;5.65;;
7969;SDS011;4030;52.362;9.206;2023-05-07T10:17:36;5.82;;;5.30;;
7969;SDS011;4030;52.362;9.206;2023-05-07T10:20:04;5.50;;;5.00;;
7969;SDS011;4030;52.362;9.206;2023-05-07T10:22:41;7.88;;;5.18;;
7969;SDS011;4030;52.362;9.206;2023-05-07T10:25:14;5.78;;;5.00;;
7969;SDS011;4030;52.362;9.206;2023-05-07T10:27:46;5.80;;;5.18;;
7969;SDS011;4030;52.362;9.206;2023-05-07T10:32:55;4.95;;;4.45;;
7969;SDS011;4030;52.362;9.206;2023-05-07T10:35:31;4.78;;;4.38;;
7969;SDS011;4030;52.362;9.206;2023-05-07T10:38:03;4.90;;;4.40;;
7969;SDS011;4030;52.362;9.206;2023-05-07T10:40:30;5.22;;;4.70;;
7969;SDS011;4030;52.362;9.206;2023-05-07T10:42:57;4.57;;;4.18;;
7969;SDS011;4030;52.362;9.206;2023-05-07T10:45:29;4.40;;;4.03;;
7969;SDS011;4030;52.362;9.206;2023-05-07T10:48:05;4.40;;;4.00;;
7969;SDS011;4030;52.362;9.206;2023-05-07T10:50:36;4.50;;;4.20;;
7969;SDS011;4030;52.362;9.206;2023-05-07T10:55:42;4.40;;;4.00;;
7969;SDS011;4030;52.362;9.206;2023-05-07T11:00:46;4.43;;;4.03;;
7969;SDS011;4030;52.362;9.206;2023-05-07T11:03:15;4.88;;;4.25;;
7969;SDS011;4030;52.362;9.206;2023-05-07T11:05:41;4.70;;;4.30;;
7969;SDS011;4030;52.362;9.206;2023-05-07T11:08:07;4.60;;;4.20;;
7969;SDS011;4030;52.362;9.206;2023-05-07T11:10:54;4.50;;;4.07;;
7969;SDS011;4030;52.362;9.206;2023-05-07T11:16:18;4.70;;;4.03;;
7969;SDS011;4030;52.362;9.206;2023-05-07T11:18:49;4.40;;;4.00;;
7969;SDS011;4030;52.362;9.206;2023-05-07T11:21:31;4.53;;;4.13;;
7969;SDS011;4030;52.362;9.206;2023-05-07T11:24:05;4.07;;;3.78;;
7969;SDS011;4030;52.362;9.206;2023-05-07T11:26:41;5.47;;;4.40;;
7969;SDS011;4030;52.362;9.206;2023-05-07T11:29:18;4.38;;;3.97;;
7969;SDS011;4030;52.362;9.206;2023-05-07T11:31:52;4.70;;;4.30;;
7969;SDS011;4030;52.362;9.206;2023-05-07T11:34:23;5.15;;;4.75;;
7969;SDS011;4030;52.362;9.206;2023-05-07T11:36:50;4.43;;;4.03;;
7969;SDS011;4030;52.362;9.206;2023-05-07T11:39:24;4.40;;;4.00;;
7969;SDS011;4030;52.362;9.206;2023-05-07T11:41:55;4.30;;;3.92;;
7969;SDS011;4030;52.362;9.206;2023-05-07T11:44:21;4.82;;;4.43;;
7969;SDS011;4030;52.362;9.206;2023-05-07T11:46:47;5.28;;;4.88;;
7969;SDS011;4030;52.362;9.206;2023-05-07T11:49:14;5.60;;;5.10;;
7969;SDS011;4030;52.362;9.206;2023-05-07T11:51:40;5.63;;;5.13;;
7969;SDS011;4030;52.362;9.206;2023-05-07T11:54:07;5.88;;;5.32;;
7969;SDS011;4030;52.362;9.206;2023-05-07T11:56:36;6.50;;;6.00;;
7969;SDS011;4030;52.362;9.206;2023-05-07T11:59:02;6.50;;;5.93;;
7969;SDS011;4030;52.362;9.206;2023-05-07T12:01:28;6.20;;;5.70;;
7969;SDS011;4030;52.362;9.206;2023-05-07T12:03:54;6.43;;;5.82;;
7969;SDS011;4030;52.362;9.206;2023-05-07T12:06:20;6.40;;;5.90;;
7969;SDS011;4030;52.362;9.206;2023-05-07T12:08:46;5.85;;;5.35;;
7969;SDS011;4030;52.362;9.206;2023-05-07T12:11:13;5.40;;;4.97;;
7969;SDS011;4030;52.362;9.206;2023-05-07T12:13:47;5.32;;;4.82;;
7969;SDS011;4030;52.362;9.206;2023-05-07T12:16:13;5.10;;;4.65;;
7969;SDS011;4030;52.362;9.206;2023-05-07T12:18:39;5.10;;;4.70;;
7969;SDS011;4030;52.362;9.206;2023-05-07T12:21:05;5.55;;;4.10;;
7969;SDS011;4030;52.362;9.206;2023-05-07T12:23:32;4.80;;;4.40;;
7969;SDS011;4030;52.362;9.206;2023-05-07T12:26:00;5.05;;;4.63;;
7969;SDS011;4030;52.362;9.206;2023-05-07T12:28:25;4.80;;;4.40;;
7969;SDS011;4030;52.362;9.206;2023-05-07T12:30:51;4.45;;;4.05;;
7969;SDS011;4030;52.362;9.206;2023-05-07T12:33:18;4.95;;;4.45;;
7969;SDS011;4030;52.362;9.206;2023-05-07T12:35:49;4.70;;;4.30;;
7969;SDS011;4030;52.362;9.206;2023-05-07T12:38:16;4.70;;;4.30;;
7969;SDS011;4030;52.362;9.206;2023-05-07T12:40:43;4.47;;;4.05;;
7969;SDS011;4030;52.362;9.206;2023-05-07T12:43:19;4.80;;;4.30;;
7969;SDS011;4030;52.362;9.206;2023-05-07T12:45:50;4.85;;;4.45;;
7969;SDS011;4030;52.362;9.206;2023-05-07T12:48:19;4.70;;;4.30;;
7969;SDS011;4030;52.362;9.206;2023-05-07T12:50:45;4.50;;;4.10;;
7969;SDS011;4030;52.362;9.206;2023-05-07T12:53:20;4.65;;;3.95;;
7969;SDS011;4030;52.362;9.206;2023-05-07T12:55:50;4.40;;;4.00;;
7969;SDS011;4030;52.362;9.206;2023-05-07T12:58:21;4.90;;;4.50;;
7969;SDS011;4030;52.362;9.206;2023-05-07T13:00:57;4.55;;;4.00;;
7969;SDS011;4030;52.362;9.206;2023-05-07T13:05:56;3.92;;;3.63;;
7969;SDS011;4030;52.362;9.206;2023-05-07T13:08:32;4.45;;;3.70;;
7969;SDS011;4030;52.362;9.206;2023-05-07T13:11:01;4.57;;;3.75;;
7969;SDS011;4030;52.362;9.206;2023-05-07T13:13:32;3.72;;;3.35;;
7969;SDS011;4030;52.362;9.206;2023-05-07T13:16:00;3.42;;;3.15;;
7969;SDS011;4030;52.362;9.206;2023-05-07T13:18:26;3.63;;;3.33;;
7969;SDS011;4030;52.362;9.206;2023-05-07T13:20:54;3.50;;;3.20;;
7969;SDS011;4030;52.362;9.206;2023-05-07T13:23:20;3.25;;;3.05;;
7969;SDS011;4030;52.362;9.206;2023-05-07T13:25:46;3.13;;;2.83;;
7969;SDS011;4030;52.362;9.206;2023-05-07T13:28:13;3.08;;;2.80;;
7969;SDS011;4030;52.362;9.206;2023-05-07T13:30:39;2.78;;;2.58;;
7969;SDS011;4030;52.362;9.206;2023-05-07T13:33:05;3.35;;;3.03;;
7969;SDS011;4030;52.362;9.206;2023-05-07T13:35:31;2.70;;;2.50;;
7969;SDS011;4030;52.362;9.206;2023-05-07T13:37:58;3.28;;;2.97;;
7969;SDS011;4030;52.362;9.206;2023-05-07T13:40:23;2.65;;;2.45;;
7969;SDS011;4030;52.362;9.206;2023-05-07T13:42:49;2.92;;;2.60;;
7969;SDS011;4030;52.362;9.206;2023-05-07T13:45:15;2.70;;;2.45;;
7969;SDS011;4030;52.362;9.206;2023-05-07T13:47:43;2.65;;;2.15;;
7969;SDS011;4030;52.362;9.206;2023-05-07T13:50:09;2.92;;;2.45;;
7969;SDS011;4030;52.362;9.206;2023-05-07T13:52:42;3.88;;;2.28;;
7969;SDS011;4030;52.362;9.206;2023-05-07T13:55:10;2.45;;;2.20;;
7969;SDS011;4030;52.362;9.206;2023-05-07T13:57:37;2.30;;;2.10;;
7969;SDS011;4030;52.362;9.206;2023-05-07T14:00:03;3.17;;;2.30;;
7969;SDS011;4030;52.362;9.206;2023-05-07T14:02:30;2.65;;;2.25;;
7969;SDS011;4030;52.362;9.206;2023-05-07T14:04:56;3.33;;;2.10;;
7969;SDS011;4030;52.362;9.206;2023-05-07T14:07:22;2.65;;;2.28;;
7969;SDS011;4030;52.362;9.206;2023-05-07T14:09:47;2.00;;;1.90;;
7969;SDS011;4030;52.362;9.206;2023-05-07T14:12:13;3.67;;;2.38;;
7969;SDS011;4030;52.362;9.206;2023-05-07T14:14:39;2.58;;;2.38;;
7969;SDS011;4030;52.362;9.206;2023-05-07T14:17:05;3.65;;;2.40;;
7969;SDS011;4030;52.362;9.206;2023-05-07T14:19:30;3.03;;;2.70;;
7969;SDS011;4030;52.362;9.206;2023-05-07T14:21:56;3.10;;;2.75;;
7969;SDS011;4030;52.362;9.206;2023-05-07T14:24:23;3.38;;;3.08;;
7969;SDS011;4030;52.362;9.206;2023-05-07T14:26:49;4.45;;;3.20;;
7969;SDS011;4030;52.362;9.206;2023-05-07T14:29:15;4.85;;;4.45;;
7969;SDS011;4030;52.362;9.206;2023-05-07T14:31:43;3.85;;;3.45;;
7969;SDS011;4030;52.362;9.206;2023-05-07T14:34:10;5.95;;;5.00;;
7969;SDS011;4030;52.362;9.206;2023-05-07T14:36:36;5.22;;;4.80;;
7969;SDS011;4030;52.362;9.206;2023-05-07T14:39:02;4.60;;;4.20;;
7969;SDS011;4030;52.362;9.206;2023-05-07T14:41:28;4.55;;;4.03;;
7969;SDS011;4030;52.362;9.206;2023-05-07T14:43:54;5.05;;;4.28;;
7969;SDS011;4030;52.362;9.206;2023-05-07T14:46:20;4.03;;;3.72;;
7969;SDS011;4030;52.362;9.206;2023-05-07T14:48:46;4.53;;;3.95;;
7969;SDS011;4030;52.362;9.206;2023-05-07T14:51:12;3.45;;;3.15;;
7969;SDS011;4030;52.362;9.206;2023-05-07T14:53:40;4.50;;;3.15;;
7969;SDS011;4030;52.362;9.206;2023-05-07T14:56:06;3.47;;;3.17;;
7969;SDS011;4030;52.362;9.206;2023-05-07T14:58:32;3.63;;;3.33;;
7969;SDS011;4030;52.362;9.206;2023-05-07T15:00:59;3.10;;;2.80;;
7969;SDS011;4030;52.362;9.206;2023-05-07T15:03:25;3.53;;;3.10;;
7969;SDS011;4030;52.362;9.206;2023-05-07T15:05:51;2.85;;;2.65;;
7969;SDS011;4030;52.362;9.206;2023-05-07T15:08:17;2.90;;;2.70;;
7969;SDS011;4030;52.362;9.206;2023-05-07T15:10:43;2.90;;;2.70;;
7969;SDS011;4030;52.362;9.206;2023-05-07T15:13:10;3.00;;;2.80;;
7969;SDS011;4030;52.362;9.206;2023-05-07T15:15:36;2.80;;;2.60;;
7969;SDS011;4030;52.362;9.206;2023-05-07T15:18:03;3.20;;;2.90;;
7969;SDS011;4030;52.362;9.206;2023-05-07T15:20:29;3.45;;;2.90;;